Time;durP1;ratioP1;P1;durP2;ratioP2;P2;SDS_P1;SDS_P2;PMS_P1;PMS_P2;Temp;Humidity;BMP_temperature;BMP_pressure;BME280_temperature;BME280_humidity;BME280_pressure;Samples;Min_cycle;Max_cycle;Signal;HPM_P1;HPM_P2
2022/12/19 00:02:03;;;;;;;6.50;4.50;;;;;;;;;;4996635;28;20050;-74
2022/12/19 00:04:30;;;;;;;7.68;5.38;;;;;;;;;;4996575;28;20543;-74
2022/12/19 00:06:58;;;;;;;7.55;4.95;;;;;;;;;;4996601;28;20495;-74
2022/12/19 00:09:25;;;;;;;8.77;5.18;;;;;;;;;;4996554;28;20053;-73
2022/12/19 00:11:52;;;;;;;7.13;4.90;;;;;;;;;;4996830;28;20136;-73
2022/12/19 00:14:19;;;;;;;7.55;4.45;;;;;;;;;;4996304;28;20629;-73
2022/12/19 00:16:46;;;;;;;6.18;4.68;;;;;;;;;;4996645;28;20153;-73
2022/12/19 00:19:15;;;;;;;9.70;5.40;;;;;;;;;;5013776;28;20132;-73
2022/12/19 00:21:42;;;;;;;7.57;4.90;;;;;;;;;;4996629;28;20443;-73
2022/12/19 00:24:10;;;;;;;6.57;5.07;;;;;;;;;;4996379;28;20060;-73
2022/12/19 00:26:38;;;;;;;6.75;4.90;;;;;;;;;;5012038;28;20050;-73
2022/12/19 00:29:06;;;;;;;7.47;4.90;;;;;;;;;;5018542;28;20460;-73
2022/12/19 00:31:34;;;;;;;6.57;4.80;;;;;;;;;;4996471;28;20414;-73
2022/12/19 00:34:01;;;;;;;8.45;5.45;;;;;;;;;;4995958;28;20056;-74
2022/12/19 00:36:30;;;;;;;7.45;5.30;;;10.00;57.80;;;;;;5000984;28;20132;-73
2022/12/19 00:38:57;;;;;;;7.28;5.03;;;;;;;;;;5015967;28;20057;-74
2022/12/19 00:41:25;;;;;;;6.22;4.60;;;;;;;;;;5030712;28;20502;-74
2022/12/19 00:43:53;;;;;;;7.07;5.18;;;;;;;;;;4995627;28;20133;-73
2022/12/19 00:46:20;;;;;;;7.13;4.97;;;;;;;;;;4995771;28;20062;-73
2022/12/19 00:48:47;;;;;;;8.50;5.30;;;;;;;;;;4996103;28;20061;-74
2022/12/19 00:51:14;;;;;;;6.75;5.07;;;;;;;;;;4995927;28;20137;-73
2022/12/19 00:53:43;;;;;;;7.40;4.85;;;;;;;;;;5012904;28;20042;-74
2022/12/19 00:56:11;;;;;;;7.15;5.15;;;;;;;;;;4995693;28;20141;-74
2022/12/19 00:58:38;;;;;;;7.43;5.03;;;;;;;;;;4995878;28;20057;-74
2022/12/19 01:01:06;;;;;;;7.47;5.00;;;;;;;;;;4995676;28;20088;-73
2022/12/19 01:03:33;;;;;;;7.53;5.22;;;;;;;;;;4995471;28;20487;-74
2022/12/19 01:06:00;;;;;;;7.28;5.35;;;;;;;;;;4995261;28;20419;-74
2022/12/19 01:08:27;;;;;;;7.20;4.95;;;;;;;;;;4995551;28;20064;-74
2022/12/19 01:10:55;;;;;;;7.80;5.15;;;9.90;57.60;;;;;;5012883;28;20129;-73
2022/12/19 01:13:22;;;;;;;6.85;4.93;;;;;;;;;;4995077;28;20470;-74
2022/12/19 01:15:49;;;;;;;7.70;5.20;;;;;;;;;;4995657;28;20129;-74
2022/12/19 01:18:16;;;;;;;8.05;5.35;;;;;;;;;;4995364;28;20080;-74
2022/12/19 01:20:44;;;;;;;8.20;5.63;;;;;;;;;;4995531;28;20064;-74
2022/12/19 01:23:11;;;;;;;6.93;4.72;;;;;;;;;;5013743;28;20148;-73
2022/12/19 01:25:38;;;;;;;9.40;5.50;;;;;;;;;;5022241;28;20054;-73
2022/12/19 01:28:06;;;;;;;7.45;5.53;;;9.90;57.60;;;;;;4995281;28;20057;-74
2022/12/19 01:30:33;;;;;;;7.45;5.38;;;;;;;;;;4995342;28;20136;-73
2022/12/19 01:33:00;;;;;;;7.20;5.32;;;;;;;;;;4995136;28;20064;-73
2022/12/19 01:35:27;;;;;;;9.35;5.38;;;;;;;;;;5012283;28;20062;-74
2022/12/19 01:37:55;;;;;;;8.63;5.65;;;;;;;;;;5029355;28;20046;-74
2022/12/19 01:40:22;;;;;;;8.38;5.38;;;;;;;;;;5015228;28;20053;-73
2022/12/19 01:42:49;;;;;;;8.68;5.57;;;;;;;;;;4994420;28;20057;-73
2022/12/19 01:45:27;;;;;;;8.80;5.22;;;;;;;;;;4994837;28;20060;-74
2022/12/19 01:47:56;;;;;;;6.93;4.70;;;9.90;56.20;;;;;;5012345;28;20050;-74
2022/12/19 01:50:24;;;;;;;7.03;4.82;;;;;;;;;;4995080;28;20079;-74
2022/12/19 01:52:51;;;;;;;7.20;5.03;;;;;;;;;;4992348;28;20471;-73
2022/12/19 01:55:18;;;;;;;7.68;5.40;;;;;;;;;;5009976;28;20471;-74
2022/12/19 01:57:45;;;;;;;8.07;5.35;;;;;;;;;;4994823;28;20133;-73
2022/12/19 02:00:13;;;;;;;8.25;5.70;;;9.90;57.60;;;;;;4994980;28;20064;-74
2022/12/19 02:02:42;;;;;;;7.63;5.45;;;;;;;;;;4994506;28;20053;-75
2022/12/19 02:05:10;;;;;;;7.45;5.22;;;;;;;;;;4994528;28;20164;-73
2022/12/19 02:07:37;;;;;;;7.78;5.15;;;;;;;;;;4994547;28;20045;-74
2022/12/19 02:10:04;;;;;;;8.35;5.20;;;;;;;;;;4994736;28;20081;-73
2022/12/19 02:12:32;;;;;;;8.90;5.82;;;;;;;;;;4994607;28;20064;-74
2022/12/19 02:14:59;;;;;;;7.47;5.18;;;;;;;;;;4994497;28;20057;-74
2022/12/19 02:17:31;;;;;;;7.80;5.35;;;9.90;57.60;;;;;;4996170;28;20134;-73
2022/12/19 02:20:13;;;;;;;7.93;5.25;;;;;;;;;;5014285;28;20053;-73
2022/12/19 02:22:43;;;;;;;7.65;5.20;;;;;;;;;;5003941;28;20064;-74
2022/12/19 02:25:19;;;;;;;9.00;5.60;;;9.90;57.60;;;;;;4994441;28;20058;-73
2022/12/19 02:27:51;;;;;;;7.63;4.75;;;;;;;;;;4994553;28;20479;-73
2022/12/19 02:30:32;;;;;;;8.70;5.65;;;9.90;56.90;;;;;;4994538;28;20379;-73
2022/12/19 02:33:02;;;;;;;6.78;5.00;;;9.90;57.70;;;;;;4994459;28;20133;-74
2022/12/19 02:35:31;;;;;;;7.57;5.13;;;9.90;57.70;;;;;;4994635;28;20141;-73
2022/12/19 02:38:03;;;;;;;7.32;5.15;;;9.90;57.60;;;;;;5007172;28;20060;-73
2022/12/19 02:40:31;;;;;;;7.32;4.90;;;9.90;57.60;;;;;;4994363;28;20140;-74
2022/12/19 02:42:59;;;;;;;7.65;5.05;;;;;;;;;;4993952;28;20467;-73
2022/12/19 02:45:26;;;;;;;8.95;5.47;;;;;;;;;;4994397;28;20558;-74
2022/12/19 02:47:54;;;;;;;7.22;5.13;;;9.90;57.70;;;;;;5011739;28;20108;-73
2022/12/19 02:50:21;;;;;;;7.75;5.03;;;;;;;;;;4994215;28;20133;-73
2022/12/19 02:52:49;;;;;;;9.93;5.30;;;;;;;;;;4993382;28;20060;-74
2022/12/19 02:55:20;;;;;;;8.38;5.50;;;;;;;;;;4994167;28;20058;-73
2022/12/19 02:57:53;;;;;;;8.43;4.95;;;;;;;;;;4994314;28;20054;-73
2022/12/19 03:00:20;;;;;;;8.63;5.28;;;;;;;;;;4994187;28;20053;-73
2022/12/19 03:02:48;;;;;;;7.90;5.38;;;;;;;;;;4993982;28;20053;-73
2022/12/19 03:05:19;;;;;;;7.85;5.28;;;;;;;;;;4994077;28;20076;-73
2022/12/19 03:07:48;;;;;;;6.82;5.05;;;10.10;57.60;;;;;;4993393;28;20053;-73
2022/12/19 03:10:16;;;;;;;6.60;4.97;;;;;;;;;;4993987;28;20049;-73
2022/12/19 03:12:46;;;;;;;7.95;5.00;;;;;;;;;;4993969;28;20064;-73
2022/12/19 03:15:13;;;;;;;7.53;5.03;;;;;;;;;;5008845;28;20063;-74
2022/12/19 03:17:40;;;;;;;7.20;4.55;;;;;;;;;;5029964;28;20052;-73
2022/12/19 03:20:08;;;;;;;6.35;4.65;;;;;;;;;;5030219;28;20116;-74
2022/12/19 03:22:37;;;;;;;7.55;4.97;;;;;;;;;;5010239;28;20056;-73
2022/12/19 03:25:04;;;;;;;7.38;4.95;;;;;;;;;;4994162;28;20058;-73
2022/12/19 03:27:31;;;;;;;7.50;4.85;;;;;;;;;;4993455;28;20056;-74
2022/12/19 03:30:01;;;;;;;7.90;5.00;;;;;;;;;;4995471;28;20061;-73
2022/12/19 03:32:28;;;;;;;6.60;4.93;;;;;;;;;;4997245;28;20053;-74
2022/12/19 03:34:58;;;;;;;6.95;4.60;;;;;;;;;;4997346;28;20064;-73
2022/12/19 03:37:26;;;;;;;7.55;4.68;;;10.00;56.00;;;;;;5003557;28;20132;-75
2022/12/19 03:39:55;;;;;;;7.43;4.72;;;10.10;57.80;;;;;;5017067;28;20053;-73
2022/12/19 03:45:21;;;;;;;6.80;4.72;;;;;;;;;;4976240;28;20050;-74
2022/12/19 03:47:49;;;;;;;7.28;4.90;;;;;;;;;;5007055;28;20405;-74
2022/12/19 03:50:16;;;;;;;7.53;5.22;;;;;;;;;;5020791;28;20387;-74
2022/12/19 03:52:45;;;;;;;7.00;4.78;;;;;;;;;;5014091;28;20426;-73
2022/12/19 03:55:16;;;;;;;6.82;4.88;;;10.40;57.60;;;;;;4996896;28;20487;-73
2022/12/19 03:57:43;;;;;;;6.78;4.90;;;;;;;;;;4997092;28;20050;-73
2022/12/19 04:00:11;;;;;;;6.97;5.00;;;;;;;;;;4997017;28;20142;-74
2022/12/19 04:02:38;;;;;;;7.63;5.13;;;;;;;;;;4996826;28;20076;-73
2022/12/19 04:05:07;;;;;;;7.43;4.90;;;10.20;57.70;;;;;;4996667;28;20635;-73
2022/12/19 04:07:34;;;;;;;6.57;4.38;;;;;;;;;;4996364;28;20064;-74
2022/12/19 04:10:01;;;;;;;6.82;4.63;;;;;;;;;;4999757;28;20721;-73
2022/12/19 04:12:33;;;;;;;6.90;4.72;;;10.20;57.70;;;;;;5032544;28;20064;-74
2022/12/19 04:15:00;;;;;;;7.22;4.90;;;;;;;;;;5016471;28;20064;-74
2022/12/19 04:17:27;;;;;;;6.93;4.70;;;;;;;;;;5033608;28;20053;-74
2022/12/19 04:19:55;;;;;;;6.57;4.57;;;10.20;57.70;;;;;;5028331;28;20410;-73
2022/12/19 04:22:23;;;;;;;8.00;5.20;;;10.20;57.70;;;;;;4996397;28;20128;-74
2022/12/19 04:24:50;;;;;;;7.78;4.90;;;;;;;;;;4996586;28;20133;-73
2022/12/19 04:27:17;;;;;;;6.28;4.80;;;;;;;;;;4996081;28;20052;-73
2022/12/19 04:29:45;;;;;;;6.47;4.75;;;10.20;57.90;;;;;;4996560;28;20069;-74
2022/12/19 04:32:12;;;;;;;6.60;4.60;;;;;;;;;;4996018;28;20146;-73
2022/12/19 04:34:40;;;;;;;6.78;4.65;;;;;;;;;;4995851;28;20132;-73
2022/12/19 04:37:07;;;;;;;7.07;4.57;;;;;;;;;;5006337;28;20045;-74
2022/12/19 04:39:34;;;;;;;7.15;4.70;;;;;;;;;;5033702;28;20128;-74
2022/12/19 04:42:01;;;;;;;5.97;4.18;;;;;;;;;;5031806;28;20084;-74
2022/12/19 04:44:28;;;;;;;7.03;4.60;;;;;;;;;;5032217;28;20140;-73
2022/12/19 04:46:56;;;;;;;6.68;4.45;;;10.20;57.90;;;;;;5032179;28;20056;-74
2022/12/19 04:49:23;;;;;;;6.95;4.65;;;;;;;;;;5003835;28;20418;-74
2022/12/19 04:51:50;;;;;;;6.65;4.55;;;;;;;;;;4995776;28;20057;-73
2022/12/19 04:54:17;;;;;;;7.32;4.93;;;;;;;;;;4995865;28;20058;-74
2022/12/19 04:56:44;;;;;;;7.72;4.68;;;;;;;;;;4995982;28;20053;-73
2022/12/19 04:59:12;;;;;;;8.45;5.30;;;;;;;;;;5013279;28;20062;-74
2022/12/19 05:01:39;;;;;;;7.38;4.90;;;;;;;;;;5013035;28;20050;-73
2022/12/19 05:04:07;;;;;;;6.50;4.47;;;;;;;;;;4995349;28;20059;-73
2022/12/19 05:06:34;;;;;;;6.38;4.32;;;;;;;;;;5001052;28;20049;-73
2022/12/19 05:09:01;;;;;;;6.75;4.63;;;;;;;;;;5031992;28;20057;-73
2022/12/19 05:11:28;;;;;;;6.35;4.22;;;;;;;;;;5031768;28;20053;-73
2022/12/19 05:13:56;;;;;;;7.03;4.70;;;;;;;;;;5031424;28;20060;-73
2022/12/19 05:16:23;;;;;;;6.20;4.22;;;;;;;;;;5031583;28;20498;-73
2022/12/19 05:18:50;;;;;;;6.47;4.30;;;;;;;;;;5012921;28;20482;-73
2022/12/19 05:21:18;;;;;;;6.50;4.40;;;;;;;;;;4995623;28;20574;-73
2022/12/19 05:23:45;;;;;;;7.25;4.60;;;;;;;;;;4995395;28;20108;-73
2022/12/19 05:26:12;;;;;;;7.53;4.70;;;;;;;;;;4995395;28;20056;-73
2022/12/19 05:28:39;;;;;;;6.40;4.40;;;;;;;;;;4994920;28;20054;-73
2022/12/19 05:31:07;;;;;;;7.22;4.22;;;;;;;;;;5012464;28;20050;-74
2022/12/19 05:33:34;;;;;;;6.15;4.22;;;;;;;;;;4995061;28;20703;-73
2022/12/19 05:36:01;;;;;;;5.88;4.00;;;10.40;56.70;;;;;;4996507;28;20053;-74
2022/12/19 05:38:29;;;;;;;6.88;4.55;;;10.20;57.80;;;;;;5014296;28;20514;-74
2022/12/19 05:40:56;;;;;;;6.68;4.18;;;;;;;;;;5032291;28;20049;-74
2022/12/19 05:43:24;;;;;;;5.53;4.00;;;;;;;;;;5031151;28;20132;-73
2022/12/19 05:45:51;;;;;;;5.85;4.30;;;;;;;;;;5027795;28;20590;-73
2022/12/19 05:48:18;;;;;;;6.45;4.07;;;;;;;;;;4994821;28;20484;-73
2022/12/19 05:50:48;;;;;;;6.70;4.28;;;;;;;;;;4995067;28;20144;-74
2022/12/19 05:53:15;;;;;;;6.22;4.15;;;;;;;;;;4994107;28;20061;-73
2022/12/19 05:55:43;;;;;;;6.03;4.05;;;;;;;;;;4994625;28;20054;-73
2022/12/19 05:58:10;;;;;;;7.93;4.05;;;;;;;;;;4994936;28;20056;-73
2022/12/19 06:00:37;;;;;;;5.78;4.13;;;;;;;;;;4994795;28;20058;-74
2022/12/19 06:03:04;;;;;;;5.57;4.07;;;;;;;;;;5001891;28;20045;-73
2022/12/19 06:05:31;;;;;;;6.47;4.38;;;;;;;;;;5030717;28;20059;-73
2022/12/19 06:07:58;;;;;;;6.53;4.43;;;;;;;;;;5031835;28;20046;-73
2022/12/19 06:10:25;;;;;;;6.65;3.97;;;;;;;;;;5030688;28;20080;-73
2022/12/19 06:12:53;;;;;;;6.00;4.10;;;10.40;57.80;;;;;;5030531;28;20140;-73
2022/12/19 06:15:20;;;;;;;6.80;4.20;;;;;;;;;;5014212;28;20407;-74
2022/12/19 06:17:47;;;;;;;6.05;4.13;;;;;;;;;;5012783;28;20172;-74
2022/12/19 06:20:15;;;;;;;5.10;3.70;;;;;;;;;;4994768;28;20410;-73
2022/12/19 06:22:42;;;;;;;5.43;3.55;;;;;;;;;;4994464;28;20463;-74
2022/12/19 06:25:09;;;;;;;5.00;3.63;;;;;;;;;;4994688;28;20418;-73
2022/12/19 06:27:36;;;;;;;6.32;4.10;;;;;;;;;;4994373;28;20471;-73
2022/12/19 06:30:05;;;;;;;5.07;3.63;;;10.20;57.40;;;;;;4994697;28;20057;-73
2022/12/19 06:32:33;;;;;;;5.43;3.80;;;;;;;;;;4994140;28;20145;-73
2022/12/19 06:35:00;;;;;;;6.68;4.20;;;;;;;;;;4994541;28;20080;-73
2022/12/19 06:37:27;;;;;;;5.78;4.03;;;;;;;;;;5024908;28;20413;-73
2022/12/19 06:39:54;;;;;;;6.05;4.13;;;;;;;;;;5030532;28;20464;-73
2022/12/19 06:42:23;;;;;;;4.90;3.55;;;;;;;;;;5030258;28;20367;-73
2022/12/19 06:44:50;;;;;;;6.22;4.43;;;;;;;;;;5014174;28;20045;-73
2022/12/19 06:47:18;;;;;;;5.15;3.90;;;;;;;;;;5015016;28;20410;-74
2022/12/19 06:49:45;;;;;;;5.20;3.55;;;;;;;;;;4994445;28;20142;-73
2022/12/19 06:52:12;;;;;;;5.40;3.70;;;;;;;;;;4993580;28;20234;-74
2022/12/19 06:54:40;;;;;;;5.65;3.90;;;;;;;;;;5011655;28;20054;-73
2022/12/19 06:57:07;;;;;;;5.68;3.55;;;;;;;;;;4994145;28;20136;-73
2022/12/19 06:59:34;;;;;;;5.57;3.60;;;;;;;;;;5003719;28;20103;-73
2022/12/19 07:02:02;;;;;;;5.40;3.55;;;;;;;;;;5023815;28;20133;-73
2022/12/19 07:04:32;;;;;;;5.10;3.40;;;10.50;57.80;;;;;;5013324;28;20056;-73
2022/12/19 07:06:59;;;;;;;4.40;3.35;;;;;;;;;;4997839;28;20498;-73
2022/12/19 07:09:26;;;;;;;4.95;3.40;;;;;;;;;;4998073;28;20065;-73
2022/12/19 07:11:53;;;;;;;5.13;3.25;;;;;;;;;;4997889;28;20388;-73
2022/12/19 07:14:20;;;;;;;4.40;3.20;;;;;;;;;;5014976;28;20071;-73
2022/12/19 07:16:47;;;;;;;5.43;3.72;;;;;;;;;;5015183;28;20064;-73
2022/12/19 07:19:14;;;;;;;5.55;3.60;;;;;;;;;;5014896;28;20096;-73
2022/12/19 07:21:43;;;;;;;4.43;3.47;;;;;;;;;;4997760;28;20064;-73
2022/12/19 07:24:10;;;;;;;4.43;3.58;;;;;;;;;;4997244;28;20060;-73
2022/12/19 07:26:37;;;;;;;5.28;3.90;;;;;;;;;;5015150;28;20057;-74
2022/12/19 07:29:04;;;;;;;4.78;3.40;;;;;;;;;;4997333;28;20054;-73
2022/12/19 07:31:32;;;;;;;4.85;3.20;;;;;;;;;;4997669;28;20064;-74
2022/12/19 07:33:59;;;;;;;4.20;3.10;;;;;;;;;;4997048;28;20064;-73
2022/12/19 07:36:26;;;;;;;4.85;3.30;;;;;;;;;;4999105;28;20096;-74
2022/12/19 07:38:54;;;;;;;4.10;3.13;;;;;;;;;;4985755;28;20121;-73
2022/12/19 07:41:21;;;;;;;4.20;3.33;;;;;;;;;;4991366;28;20137;-73
2022/12/19 07:43:48;;;;;;;4.35;3.30;;;;;;;;;;5006077;28;20057;-73
2022/12/19 07:46:15;;;;;;;4.57;3.40;;;;;;;;;;5005238;28;20474;-73
2022/12/19 07:48:42;;;;;;;4.38;3.20;;;;;;;;;;5005073;28;20414;-73
2022/12/19 07:51:09;;;;;;;4.13;2.97;;;;;;;;;;5004911;28;20414;-73
2022/12/19 07:53:36;;;;;;;4.15;3.22;;;;;;;;;;5013872;28;20046;-73
2022/12/19 07:56:05;;;;;;;3.80;2.90;;;;;;;;;;5025835;28;20057;-73
2022/12/19 07:58:32;;;;;;;4.30;3.13;;;;;;;;;;5034277;28;20053;-73
2022/12/19 08:01:00;;;;;;;3.47;2.83;;;;;;;;;;5030577;28;20061;-73
2022/12/19 08:03:28;;;;;;;4.28;2.88;;;;;;;;;;4996684;28;20065;-73
2022/12/19 08:05:59;;;;;;;4.18;2.80;;;11.10;57.50;;;;;;4996842;28;20487;-73
2022/12/19 08:08:26;;;;;;;4.28;2.88;;;;;;;;;;5001667;28;20483;-73
2022/12/19 08:10:53;;;;;;;4.20;3.22;;;;;;;;;;5005862;28;20515;-73
2022/12/19 08:13:21;;;;;;;3.90;2.78;;;11.20;57.50;;;;;;5010179;28;20474;-73
2022/12/19 08:15:48;;;;;;;3.60;2.78;;;;;;;;;;5022669;28;20050;-73
2022/12/19 08:18:16;;;;;;;4.03;3.05;;;;;;;;;;4996805;28;20077;-73
2022/12/19 08:20:45;;;;;;;4.65;3.00;;;11.30;57.10;;;;;;4996579;28;20070;-73
2022/12/19 08:23:12;;;;;;;4.28;2.65;;;;;;;;;;4996373;28;20054;-73
2022/12/19 08:25:39;;;;;;;4.82;2.80;;;;;;;;;;4996583;28;20136;-74
2022/12/19 08:28:06;;;;;;;;;;;11.40;57.60;;;;;;4996779;28;20056;-73
2022/12/19 08:30:34;;;;;;;3.40;2.60;;;;;;;;;;4995909;28;19927;-74
2022/12/19 08:33:01;;;;;;;3.42;2.85;;;;;;;;;;4995865;28;20133;-75
2022/12/19 08:35:28;;;;;;;3.38;2.75;;;;;;;;;;4995994;28;20050;-76
2022/12/19 08:37:55;;;;;;;4.45;2.83;;;;;;;;;;5012924;28;20076;-76
2022/12/19 08:40:23;;;;;;;6.65;2.70;;;;;;;;;;5018711;28;20064;-76
2022/12/19 08:42:50;;;;;;;4.45;2.90;;;;;;;;;;4995691;28;20054;-76
2022/12/19 08:45:17;;;;;;;3.03;2.45;;;;;;;;;;4996089;28;20060;-77
2022/12/19 08:47:45;;;;;;;4.53;2.70;;;;;;;;;;5010735;28;20060;-77
2022/12/19 08:50:13;;;;;;;3.40;2.30;;;;;;;;;;4996129;28;20133;-74
2022/12/19 08:52:40;;;;;;;3.70;2.60;;;;;;;;;;5027496;28;20617;-74
2022/12/19 08:55:08;;;;;;;3.58;2.65;;;;;;;;;;5032069;28;20061;-74
2022/12/19 08:57:36;;;;;;;4.88;2.58;;;;;;;;;;5025981;28;20057;-74
2022/12/19 09:00:03;;;;;;;5.63;2.70;;;;;;;;;;4995609;28;20056;-74
2022/12/19 09:02:30;;;;;;;4.63;2.67;;;;;;;;;;4995662;28;20092;-74
2022/12/19 09:04:58;;;;;;;3.40;2.60;;;11.80;57.40;;;;;;4995756;28;20141;-73
2022/12/19 09:07:25;;;;;;;4.10;2.40;;;;;;;;;;5012987;28;20041;-74
2022/12/19 09:09:52;;;;;;;3.00;2.30;;;;;;;;;;4995537;28;20077;-74
2022/12/19 09:12:20;;;;;;;2.70;2.10;;;;;;;;;;4995117;28;20064;-74
2022/12/19 09:14:47;;;;;;;2.92;2.40;;;;;;;;;;4994106;28;24880;-75
2022/12/19 09:17:14;;;;;;;3.50;2.70;;;;;;;;;;5011330;28;24857;-74
2022/12/19 09:19:41;;;;;;;3.03;2.50;;;;;;;;;;5011737;28;24492;-75
2022/12/19 09:22:10;;;;;;;3.83;2.30;;;;;;;;;;5010470;28;25010;-75
2022/12/19 09:24:37;;;;;;;4.70;2.40;;;;;;;;;;4995005;28;20475;-73
2022/12/19 09:27:04;;;;;;;3.72;2.38;;;;;;;;;;4995180;28;20593;-73
2022/12/19 09:29:32;;;;;;;3.88;2.03;;;;;;;;;;4996741;28;20487;-73
2022/12/19 09:31:59;;;;;;;3.50;2.22;;;;;;;;;;4993872;28;20050;-73
2022/12/19 09:34:26;;;;;;;3.38;2.30;;;;;;;;;;4994461;28;20053;-73
2022/12/19 09:36:53;;;;;;;5.18;2.20;;;;;;;;;;5012421;28;20423;-74
2022/12/19 09:39:21;;;;;;;3.00;2.00;;;;;;;;;;4994875;28;20386;-73
2022/12/19 09:42:04;;;;;;;3.10;2.20;;;;;;;;;;5012008;28;20042;-73
2022/12/19 09:44:48;;;;;;;2.60;2.03;;;12.00;57.80;;;;;;4992863;28;20050;-75
2022/12/19 09:47:16;;;;;;;2.67;2.00;;;12.00;57.70;;;;;;4994388;28;20096;-74
2022/12/19 09:49:44;;;;;;;3.30;2.05;;;;;;;;;;5014306;28;20057;-75
2022/12/19 09:52:13;;;;;;;2.78;1.98;;;12.00;57.10;;;;;;5016399;28;20056;-75
2022/12/19 09:54:43;;;;;;;3.13;2.00;;;;;;;;;;4994692;28;20579;-75
2022/12/19 09:57:12;;;;;;;3.00;2.13;;;;;;;;;;4994869;28;20045;-75
2022/12/19 09:59:41;;;;;;;3.03;1.95;;;11.90;58.30;;;;;;4994372;28;20054;-75
2022/12/19 10:02:20;;;;;;;3.35;1.90;;;11.90;58.60;;;;;;4994383;28;20066;-75
2022/12/19 10:04:48;;;;;;;5.25;2.35;;;12.00;56.60;;;;;;4994339;28;20141;-75
2022/12/19 10:07:15;;;;;;;3.22;2.00;;;;;;;;;;4994650;28;20501;-75
2022/12/19 10:09:44;;;;;;;3.83;2.08;;;;;;;;;;4994461;28;20050;-75
2022/12/19 10:12:18;;;;;;;4.78;2.25;;;;;;;;;;4994421;28;20056;-75
2022/12/19 10:14:52;;;;;;;3.38;2.08;;;11.90;58.90;;;;;;4994304;28;20054;-75
2022/12/19 10:17:23;;;;;;;4.35;2.38;;;11.90;58.90;;;;;;4994592;28;20128;-75
2022/12/19 10:20:03;;;;;;;3.13;2.05;;;12.00;59.00;;;;;;4994566;28;20049;-75
2022/12/19 10:22:36;;;;;;;3.50;1.92;;;12.00;59.00;;;;;;4994381;28;20072;-75
2022/12/19 10:25:10;;;;;;;3.25;2.25;;;;;;;;;;4994029;28;20136;-75
2022/12/19 10:27:38;;;;;;;3.10;2.08;;;;;;;;;;4994093;28;20054;-75
2022/12/19 10:30:11;;;;;;;3.47;1.90;;;;;;;;;;4994062;28;20050;-75
2022/12/19 10:32:40;;;;;;;3.42;2.03;;;;;;;;;;4993574;28;20144;-75
2022/12/19 10:35:12;;;;;;;4.28;2.15;;;12.00;57.30;;;;;;4994415;28;20054;-75
2022/12/19 10:37:40;;;;;;;3.55;2.08;;;;;;;;;;4998688;28;20149;-77
2022/12/19 10:40:10;;;;;;;4.13;2.05;;;;;;;;;;4997737;28;20061;-75
2022/12/19 10:42:44;;;;;;;3.70;2.20;;;12.00;58.70;;;;;;4997601;28;20136;-74
2022/12/19 10:45:13;;;;;;;4.25;1.83;;;;;;;;;;5023315;28;20045;-74
2022/12/19 10:47:41;;;;;;;3.67;2.05;;;;;;;;;;5005598;28;20057;-74
2022/12/19 10:50:11;;;;;;;2.95;2.10;;;;;;;;;;4996846;28;20049;-74
2022/12/19 10:52:47;;;;;;;4.35;2.22;;;12.10;59.30;;;;;;4988242;28;20054;-74
2022/12/19 10:55:27;;;;;;;3.72;2.38;;;;;;;;;;4989586;28;20253;-74
2022/12/19 10:57:55;;;;;;;3.38;1.98;;;;;;;;;;5007039;28;20593;-73
2022/12/19 11:00:22;;;;;;;3.08;2.17;;;;;;;;;;5007023;28;20401;-74
2022/12/19 11:02:50;;;;;;;2.30;1.70;;;;;;;;;;5004220;28;20077;-76
2022/12/19 11:05:21;;;;;;;3.25;2.15;;;;;;;;;;5004713;28;20049;-74
2022/12/19 11:07:56;;;;;;;3.80;2.00;;;;;;;;;;5005932;28;20054;-74
2022/12/19 11:10:34;;;;;;;3.28;1.95;;;;;;;;;;4987986;28;20458;-74
2022/12/19 11:13:02;;;;;;;2.80;1.80;;;;;;;;;;4988698;28;20046;-74
2022/12/19 11:15:29;;;;;;;3.83;2.20;;;;;;;;;;4988877;28;20054;-74
2022/12/19 11:18:05;;;;;;;2.65;1.98;;;12.20;59.20;;;;;;4988763;28;20138;-74
2022/12/19 11:20:32;;;;;;;3.13;2.00;;;;;;;;;;4981586;28;20060;-74
2022/12/19 11:23:00;;;;;;;3.08;1.92;;;;;;;;;;4988098;28;20054;-74
2022/12/19 11:25:31;;;;;;;2.50;1.65;;;;;;;;;;4985085;28;20415;-74
2022/12/19 11:27:58;;;;;;;3.30;2.17;;;;;;;;;;4981909;28;20137;-74
2022/12/19 11:30:28;;;;;;;3.63;1.90;;;;;;;;;;4997125;28;20090;-74
2022/12/19 11:33:07;;;;;;;3.10;1.90;;;;;;;;;;4996959;28;20521;-74
2022/12/19 11:35:34;;;;;;;4.15;1.85;;;;;;;;;;4996229;28;20049;-74
2022/12/19 11:38:03;;;;;;;2.83;2.03;;;;;;;;;;4997756;28;20049;-74
2022/12/19 11:40:32;;;;;;;3.65;1.75;;;12.20;59.30;;;;;;5004183;28;20128;-73
2022/12/19 11:43:00;;;;;;;3.42;1.85;;;;;;;;;;4997569;28;20085;-73
2022/12/19 11:45:32;;;;;;;2.60;1.98;;;;;;;;;;4996153;28;20053;-73
2022/12/19 11:48:00;;;;;;;2.50;1.80;;;12.20;59.10;;;;;;4994241;28;20065;-73
2022/12/19 11:50:28;;;;;;;3.13;1.80;;;12.20;59.30;;;;;;4995243;28;20056;-73
2022/12/19 11:52:57;;;;;;;2.10;1.70;;;;;;;;;;4996679;28;20054;-73
2022/12/19 11:55:24;;;;;;;2.65;1.77;;;;;;;;;;4997060;28;20053;-73
2022/12/19 11:57:51;;;;;;;3.38;1.75;;;;;;;;;;5003920;28;20052;-73
2022/12/19 12:00:20;;;;;;;3.90;2.00;;;12.30;57.50;;;;;;5007549;28;20128;-73
2022/12/19 12:03:05;;;;;;;2.78;1.80;;;;;;;;;;5015831;28;20499;-74
2022/12/19 12:05:43;;;;;;;3.10;1.77;;;12.20;59.60;;;;;;4997064;28;20050;-74
2022/12/19 12:08:27;;;;;;;2.30;1.80;;;12.10;59.80;;;;;;5021926;28;20054;-74
2022/12/19 12:10:59;;;;;;;3.53;2.10;;;12.10;59.80;;;;;;5004477;28;20130;-74
2022/12/19 12:13:27;;;;;;;2.33;1.70;;;;;;;;;;5004554;28;20083;-74
2022/12/19 12:15:56;;;;;;;3.28;1.90;;;;;;;;;;5005675;28;20149;-73
2022/12/19 12:18:26;;;;;;;2.63;1.70;;;;;;;;;;4998825;28;20152;-74
2022/12/19 12:20:59;;;;;;;3.50;1.67;;;12.10;58.80;;;;;;4996232;28;20064;-75
2022/12/19 12:23:29;;;;;;;2.17;1.70;;;12.00;60.10;;;;;;5004225;28;20132;-74
2022/12/19 12:25:58;;;;;;;2.33;1.73;;;;;;;;;;5003745;28;20136;-75
2022/12/19 12:28:48;;;;;;;2.38;1.80;;;11.90;60.40;;;;;;5001651;28;20137;-73
2022/12/19 12:31:33;;;;;;;2.30;1.67;;;;;;;;;;5004330;28;20096;-74
2022/12/19 12:34:04;;;;;;;2.85;1.90;;;;;;;;;;5003746;28;20057;-73
2022/12/19 12:36:35;;;;;;;2.90;1.80;;;12.00;60.40;;;;;;5002670;28;20136;-74
2022/12/19 12:39:04;;;;;;;2.88;1.88;;;;;;;;;;5002607;28;20124;-74
2022/12/19 12:44:21;;;;;;;2.78;1.77;;;;;;;;;;5006570;28;20049;-74
2022/12/19 12:46:48;;;;;;;3.25;1.85;;;11.80;58.60;;;;;;5004325;28;20057;-73
2022/12/19 12:49:27;;;;;;;3.60;2.00;;;11.90;60.70;;;;;;5006436;28;20052;-74
2022/12/19 12:51:55;;;;;;;2.33;1.60;;;;;;;;;;4990535;28;20666;-73
2022/12/19 12:54:22;;;;;;;3.08;1.80;;;;;;;;;;5001753;28;20058;-75
2022/12/19 12:56:49;;;;;;;2.20;1.60;;;;;;;;;;5017556;28;20045;-74
2022/12/19 12:59:22;;;;;;;3.25;1.58;;;11.80;60.10;;;;;;5009112;28;20414;-75
2022/12/19 13:01:55;;;;;;;2.00;1.60;;;;;;;;;;4990737;28;20132;-74
2022/12/19 13:04:31;;;;;;;2.63;1.90;;;11.80;60.80;;;;;;4992279;28;20054;-74
2022/12/19 13:07:04;;;;;;;;;;;11.60;60.80;;;;;;4995203;28;20136;-73
2022/12/19 13:09:31;;;;;;;2.55;1.60;;;;;;;;;;4995495;28;19971;-76
2022/12/19 13:14:47;;;;;;;2.83;1.80;;;;;;;;;;5014677;28;20046;-73
2022/12/19 13:17:14;;;;;;;2.72;1.70;;;;;;;;;;5001334;28;20049;-74
2022/12/19 13:19:53;;;;;;;3.53;1.90;;;11.70;60.80;;;;;;5000477;28;20053;-74
2022/12/19 13:22:23;;;;;;;2.55;2.03;;;11.60;61.10;;;;;;4988246;28;20106;-74
2022/12/19 13:24:51;;;;;;;2.47;1.80;;;;;;;;;;5012663;28;20044;-74
2022/12/19 13:27:40;;;;;;;2.28;1.70;;;11.60;57.50;;;;;;4985116;28;20137;-74
2022/12/19 13:30:17;;;;;;;1.75;1.55;;;;;;;;;;4988392;28;20054;-73
2022/12/19 13:33:06;;;;;;;3.10;1.70;;;11.50;57.60;;;;;;4985055;28;20049;-74
2022/12/19 13:35:35;;;;;;;3.25;2.38;;;;;;;;;;4995101;28;20542;-73
2022/12/19 13:38:03;;;;;;;2.75;2.00;;;;;;;;;;4986756;28;20097;-74
2022/12/19 13:40:31;;;;;;;2.83;1.70;;;11.50;59.70;;;;;;4983710;28;20046;-74
2022/12/19 13:45:52;;;;;;;3.67;1.90;;;;;;;;;;4997565;28;20050;-74
2022/12/19 13:48:28;;;;;;;2.65;1.52;;;11.50;60.90;;;;;;4983759;28;20054;-74
2022/12/19 13:50:55;;;;;;;3.03;1.73;;;;;;;;;;4980981;28;20046;-73
2022/12/19 13:53:31;;;;;;;2.64;1.87;;;;;;;;;;4891199;28;10000495;-75
2022/12/19 13:56:00;;;;;;;2.58;1.67;;;11.60;60.60;;;;;;4531234;28;10001184;-73
2022/12/19 13:58:28;;;;;;;2.10;1.70;;;11.50;59.50;;;;;;5029145;28;20148;-73
2022/12/19 14:00:55;;;;;;;3.28;2.05;;;;;;;;;;5018491;28;20049;-74
2022/12/19 14:03:23;;;;;;;3.22;1.88;;;;;;;;;;5025908;28;20057;-75
2022/12/19 14:05:50;;;;;;;2.33;1.70;;;;;;;;;;5017948;28;20049;-74
2022/12/19 14:08:19;;;;;;;2.92;2.00;;;11.60;60.40;;;;;;5030644;28;20149;-74
2022/12/19 14:10:48;;;;;;;2.30;1.52;;;11.60;60.60;;;;;;5030489;28;20049;-73
2022/12/19 14:16:01;;;;;;;2.05;1.65;;;;;;;;;;5030758;28;20049;-74
2022/12/19 14:18:28;;;;;;;2.35;1.70;;;;;;;;;;5015213;28;20069;-74
2022/12/19 14:21:12;;;;;;;2.70;1.95;;;11.70;60.30;;;;;;5011702;28;20046;-74
2022/12/19 14:23:39;;;;;;;2.72;1.65;;;;;;;;;;5023737;28;20053;-74
2022/12/19 14:26:08;;;;;;;2.00;1.60;;;;;;;;;;5030574;28;20061;-74
2022/12/19 14:28:38;;;;;;;2.67;1.90;;;11.70;58.40;;;;;;5031425;28;20053;-74
2022/12/19 14:31:05;;;;;;;2.25;1.70;;;;;;;;;;5050055;28;20068;-74
2022/12/19 14:33:33;;;;;;;2.00;1.60;;;;;;;;;;5019648;28;20060;-74
2022/12/19 14:36:00;;;;;;;2.40;1.70;;;;;;;;;;5030141;28;20471;-73
2022/12/19 14:38:28;;;;;;;2.65;1.63;;;;;;;;;;5027904;28;20061;-75
2022/12/19 14:40:55;;;;;;;2.55;1.70;;;;;;;;;;5011565;28;20052;-74